Time;durP1;ratioP1;P1;durP2;ratioP2;P2;SDS_P1;SDS_P2;PMS_P1;PMS_P2;Temp;Humidity;BMP_temperature;BMP_pressure;BME280_temperature;BME280_humidity;BME280_pressure;Samples;Min_cycle;Max_cycle;Signal;HPM_P1;HPM_P2
2021/12/19 00:04:39;;;;;;;;;;;7.80;89.20;;;;;;5085827;28;19951;-46
2021/12/19 00:09:51;;;;;;;;;;;7.80;89.40;;;;;;5072766;28;20045;-47
2021/12/19 00:12:18;;;;;;;;;;;7.80;89.50;;;;;;5085512;28;19915;-46
2021/12/19 00:14:45;;;;;;;;;;;7.80;89.60;;;;;;5093304;28;19990;-47
2021/12/19 00:17:10;;;;;;;;;;;7.80;89.70;;;;;;5057445;28;19912;-47
2021/12/19 00:19:36;;;;;;;;;;;7.80;89.70;;;;;;5083141;28;19911;-49
2021/12/19 00:22:03;;;;;;;;;;;7.80;89.60;;;;;;5077096;28;19920;-47
2021/12/19 00:24:29;;;;;;;;;;;7.80;89.50;;;;;;5067859;28;19916;-46
2021/12/19 00:26:56;;;;;;;;;;;7.80;89.50;;;;;;5058699;28;19935;-45
2021/12/19 00:29:23;;;;;;;;;;;7.70;89.60;;;;;;5052640;28;19913;-44
2021/12/19 00:31:50;;;;;;;;;;;7.70;89.70;;;;;;5057618;28;19959;-44
2021/12/19 00:34:21;;;;;;;;;;;7.70;89.70;;;;;;5056862;28;19913;-45
2021/12/19 00:36:47;;;;;;;;;;;7.70;89.50;;;;;;5069978;28;19915;-45
2021/12/19 00:39:14;;;;;;;;;;;7.70;89.40;;;;;;5063397;28;19904;-47
2021/12/19 00:41:40;;;;;;;;;;;7.70;89.20;;;;;;5071690;28;19916;-46
2021/12/19 00:44:11;;;;;;;;;;;7.70;89.10;;;;;;5065679;28;19934;-45
2021/12/19 00:46:49;;;;;;;;;;;7.70;89.00;;;;;;5046444;28;19913;-45
2021/12/19 00:49:17;;;;;;;;;;;7.80;88.90;;;;;;5059139;28;20317;-45
2021/12/19 00:51:44;;;;;;;;;;;7.70;88.90;;;;;;5072283;28;20264;-45
2021/12/19 00:54:12;;;;;;;;;;;7.70;88.90;;;;;;5056684;28;20380;-47
2021/12/19 00:56:41;;;;;;;;;;;7.70;89.00;;;;;;5052313;28;19904;-47
2021/12/19 00:59:07;;;;;;;;;;;7.70;89.00;;;;;;5065831;28;20306;-45
2021/12/19 01:01:35;;;;;;;;;;;7.80;88.90;;;;;;5071811;28;19915;-45
2021/12/19 01:04:09;;;;;;;;;;;7.80;88.90;;;;;;5066052;28;19909;-45
2021/12/19 01:06:43;;;;;;;;;;;7.80;89.10;;;;;;5051878;28;19913;-47
2021/12/19 01:09:10;;;;;;;;;;;7.80;89.20;;;;;;5065790;28;19918;-46
2021/12/19 01:11:37;;;;;;;;;;;7.90;89.10;;;;;;5071636;28;19909;-46
2021/12/19 01:14:06;;;;;;;;;;;7.90;89.10;;;;;;5060511;28;19909;-47
2021/12/19 01:16:32;;;;;;;;;;;7.90;89.10;;;;;;5046000;28;20234;-45
2021/12/19 01:18:58;;;;;;;;;;;7.80;89.10;;;;;;5058881;28;19908;-49
2021/12/19 01:21:25;;;;;;;;;;;7.90;89.10;;;;;;5069605;28;20683;-47
2021/12/19 01:23:52;;;;;;;;;;;7.80;89.10;;;;;;5066210;28;19938;-48
2021/12/19 01:26:19;;;;;;;;;;;7.90;89.10;;;;;;5084129;28;20355;-46
2021/12/19 01:28:45;;;;;;;;;;;7.90;89.10;;;;;;5080379;28;20003;-44
2021/12/19 01:31:12;;;;;;;;;;;7.90;89.10;;;;;;5071390;28;19909;-45
2021/12/19 01:33:39;;;;;;;;;;;7.90;88.90;;;;;;5060007;28;20249;-45
2021/12/19 01:36:06;;;;;;;;;;;7.90;88.70;;;;;;5084034;28;20064;-48
2021/12/19 01:38:33;;;;;;;;;;;7.90;88.80;;;;;;5087823;28;19912;-52
2021/12/19 01:40:59;;;;;;;;;;;7.90;88.80;;;;;;5091368;28;20226;-47
2021/12/19 01:43:26;;;;;;;;;;;7.90;88.90;;;;;;5083553;28;20241;-47
2021/12/19 01:45:54;;;;;;;;;;;7.90;88.90;;;;;;5073509;28;20023;-45
2021/12/19 01:48:21;;;;;;;;;;;7.90;88.90;;;;;;5089636;28;19923;-49
2021/12/19 01:50:48;;;;;;;;;;;7.90;88.90;;;;;;5091225;28;20003;-47
2021/12/19 01:53:15;;;;;;;;;;;7.90;88.90;;;;;;5074919;28;19916;-47
2021/12/19 01:55:43;;;;;;;;;;;7.90;89.00;;;;;;5090659;28;19958;-48
2021/12/19 01:58:09;;;;;;;;;;;7.90;89.10;;;;;;5084035;28;19969;-46
2021/12/19 02:00:39;;;;;;;;;;;7.90;89.00;;;;;;5086185;28;19908;-48
2021/12/19 02:03:06;;;;;;;;;;;7.90;88.90;;;;;;5070974;28;19911;-47
2021/12/19 02:05:33;;;;;;;;;;;7.90;88.60;;;;;;5073373;28;19916;-44
2021/12/19 02:08:00;;;;;;;;;;;7.90;88.60;;;;;;5061332;28;20314;-47
2021/12/19 02:10:27;;;;;;;;;;;7.90;88.60;;;;;;5091331;28;20250;-45
2021/12/19 02:12:55;;;;;;;;;;;7.90;88.60;;;;;;5089648;28;20255;-49
2021/12/19 02:15:26;;;;;;;;;;;7.90;88.40;;;;;;5084132;28;19943;-46
2021/12/19 02:17:55;;;;;;;;;;;7.90;88.40;;;;;;5036575;28;20400;-46
2021/12/19 02:20:22;;;;;;;;;;;7.90;88.70;;;;;;5069225;28;19908;-49
2021/12/19 02:22:49;;;;;;;;;;;7.90;88.70;;;;;;5076669;28;19908;-47
2021/12/19 02:25:16;;;;;;;;;;;7.90;88.90;;;;;;5090387;28;19923;-47
2021/12/19 02:27:46;;;;;;;;;;;7.90;89.00;;;;;;5072785;28;19927;-47
2021/12/19 02:30:15;;;;;;;;;;;7.90;89.00;;;;;;5070594;28;20002;-46
2021/12/19 02:32:42;;;;;;;;;;;7.90;89.00;;;;;;5084771;28;19972;-50
2021/12/19 02:35:14;;;;;;;;;;;7.90;89.00;;;;;;5066076;28;19912;-44
2021/12/19 02:48:40;;;;;;;;;;;7.90;89.50;;;;;;5088763;28;19926;-50
2021/12/19 02:51:07;;;;;;;;;;;7.90;89.60;;;;;;5052432;28;19915;-50
2021/12/19 02:53:52;;;;;;;;;;;7.90;89.70;;;;;;5078944;28;19922;-46
2021/12/19 02:56:20;;;;;;;;;;;7.90;89.60;;;;;;5090145;28;19908;-49
2021/12/19 02:58:46;;;;;;;;;;;7.90;89.30;;;;;;5088571;28;19916;-47
2021/12/19 03:01:15;;;;;;;;;;;7.90;89.10;;;;;;5074493;28;19908;-50
2021/12/19 03:03:41;;;;;;;;;;;7.90;89.10;;;;;;5055218;28;19912;-48
2021/12/19 03:06:08;;;;;;;;;;;7.90;89.10;;;;;;5070218;28;20272;-48
2021/12/19 03:08:36;;;;;;;;;;;7.90;89.10;;;;;;5052639;28;19951;-47
2021/12/19 03:19:04;;;;;;;;;;;7.90;88.50;;;;;;5085301;28;19979;-47
2021/12/19 03:21:31;;;;;;;;;;;7.90;88.60;;;;;;5081754;28;19908;-48
2021/12/19 03:23:58;;;;;;;;;;;7.90;88.60;;;;;;5059949;28;19912;-46
2021/12/19 03:26:24;;;;;;;;;;;7.90;88.60;;;;;;5080180;28;19955;-51
2021/12/19 03:28:51;;;;;;;;;;;7.80;88.70;;;;;;5072071;28;19919;-45
2021/12/19 03:31:18;;;;;;;;;;;7.80;88.90;;;;;;5080426;28;19912;-50
2021/12/19 03:33:45;;;;;;;;;;;7.80;89.00;;;;;;5078656;28;20420;-47
2021/12/19 03:36:11;;;;;;;;;;;7.80;89.10;;;;;;5068143;28;19923;-49
2021/12/19 03:38:43;;;;;;;;;;;7.80;88.80;;;;;;5085427;28;19912;-48
2021/12/19 03:41:22;;;;;;;;;;;7.80;88.40;;;;;;5072804;28;19908;-45
2021/12/19 03:43:49;;;;;;;;;;;7.80;88.00;;;;;;5086812;28;20340;-50
2021/12/19 03:46:15;;;;;;;;;;;7.80;87.90;;;;;;5069567;28;20349;-47
2021/12/19 03:48:41;;;;;;;;;;;7.80;88.00;;;;;;5075501;28;20471;-52
2021/12/19 03:51:07;;;;;;;;;;;7.80;88.30;;;;;;5070251;28;20046;-45
2021/12/19 03:53:35;;;;;;;;;;;7.80;88.60;;;;;;5081339;28;20008;-45
2021/12/19 03:56:01;;;;;;;;;;;7.80;88.60;;;;;;5075681;28;20002;-46
2021/12/19 03:58:28;;;;;;;;;;;7.80;88.70;;;;;;5092206;28;20402;-46
2021/12/19 04:00:59;;;;;;;;;;;7.80;88.80;;;;;;5075418;28;20006;-48
2021/12/19 04:03:26;;;;;;;;;;;7.80;89.20;;;;;;5085534;28;19939;-50
2021/12/19 04:05:55;;;;;;;;;;;7.70;89.50;;;;;;5093355;28;20041;-47
2021/12/19 04:08:22;;;;;;;;;;;7.70;89.70;;;;;;5084588;28;19916;-47
2021/12/19 04:10:50;;;;;;;;;;;7.70;89.80;;;;;;5072992;28;20234;-48
2021/12/19 04:13:16;;;;;;;;;;;7.70;89.90;;;;;;5088427;28;19908;-45
2021/12/19 04:15:43;;;;;;;;;;;7.70;89.70;;;;;;5082304;28;20435;-47
2021/12/19 04:18:10;;;;;;;;;;;7.60;89.50;;;;;;5079026;28;19916;-49
2021/12/19 04:20:35;;;;;;;;;;;7.60;89.50;;;;;;5066141;28;19913;-49
2021/12/19 04:23:03;;;;;;;;;;;7.60;89.50;;;;;;5084817;28;19912;-47
2021/12/19 04:25:29;;;;;;;;;;;7.60;89.50;;;;;;5065782;28;19920;-46
2021/12/19 04:27:59;;;;;;;;;;;7.50;89.30;;;;;;5056022;28;19989;-49
2021/12/19 04:30:26;;;;;;;;;;;7.50;89.30;;;;;;5064888;28;19912;-48
2021/12/19 04:33:12;;;;;;;;;;;7.50;89.20;;;;;;5066132;28;19943;-46
2021/12/19 04:35:45;;;;;;;;;;;7.40;89.20;;;;;;5057399;28;19920;-49
2021/12/19 05:00:17;;;;;;;;;;;7.40;91.70;;;;;;5068147;28;19923;-45
2021/12/19 05:03:02;;;;;;;;;;;7.40;91.90;;;;;;5065092;28;20288;-47
2021/12/19 05:05:58;;;;;;;;;;;7.30;91.90;;;;;;5051164;28;20364;-49
2021/12/19 05:14:20;;;;;;;;;;;7.40;92.10;;;;;;5058041;28;19912;-49
2021/12/19 05:16:48;;;;;;;;;;;7.30;92.00;;;;;;5069890;28;19956;-48
2021/12/19 05:19:29;;;;;;;;;;;7.40;92.10;;;;;;5059234;28;19919;-46
2021/12/19 05:22:00;;;;;;;;;;;7.40;92.00;;;;;;5053432;28;20338;-46
2021/12/19 05:27:03;;;;;;;;;;;7.40;92.00;;;;;;5089998;28;20265;-47
2021/12/19 05:29:31;;;;;;;;;;;7.40;92.10;;;;;;5091471;28;19915;-46
2021/12/19 05:31:58;;;;;;;;;;;7.40;92.10;;;;;;5087229;28;20355;-45
2021/12/19 05:34:26;;;;;;;;;;;7.40;92.10;;;;;;5085312;28;19948;-45
2021/12/19 05:45:19;;;;;;;;;;;7.40;91.90;;;;;;5089475;28;20015;-44
2021/12/19 05:47:50;;;;;;;;;;;7.40;91.60;;;;;;5088942;28;19924;-47
2021/12/19 05:50:21;;;;;;;;;;;7.40;91.30;;;;;;5073180;28;19911;-45
2021/12/19 05:52:47;;;;;;;;;;;7.50;91.20;;;;;;5082225;28;19913;-44
2021/12/19 05:55:15;;;;;;;;;;;7.50;91.10;;;;;;5091310;28;19954;-45
2021/12/19 05:57:42;;;;;;;;;;;7.50;91.00;;;;;;5091020;28;19997;-44
2021/12/19 06:00:12;;;;;;;;;;;7.50;90.90;;;;;;5090512;28;20337;-44
2021/12/19 06:02:40;;;;;;;;;;;7.50;90.90;;;;;;5087357;28;20069;-44
2021/12/19 06:05:08;;;;;;;;;;;7.50;90.90;;;;;;5090011;28;19947;-44
2021/12/19 06:07:35;;;;;;;;;;;7.60;91.00;;;;;;5090222;28;20002;-44
2021/12/19 06:10:03;;;;;;;;;;;7.50;91.00;;;;;;5090744;28;19915;-46
2021/12/19 06:12:31;;;;;;;;;;;7.50;91.00;;;;;;5088717;28;19912;-45
2021/12/19 06:14:58;;;;;;;;;;;7.50;91.00;;;;;;5088432;28;19923;-44
2021/12/19 06:17:24;;;;;;;;;;;7.60;90.90;;;;;;5087603;28;19908;-45
2021/12/19 06:19:50;;;;;;;;;;;7.60;90.70;;;;;;5078103;28;19965;-45
2021/12/19 06:22:17;;;;;;;;;;;7.60;90.80;;;;;;5070387;28;19912;-45
2021/12/19 06:24:44;;;;;;;;;;;7.60;90.90;;;;;;5049937;28;20384;-45
2021/12/19 06:27:10;;;;;;;;;;;7.70;91.10;;;;;;5050117;28;20357;-46
2021/12/19 06:29:40;;;;;;;;;;;7.60;91.20;;;;;;5068027;28;19908;-52
2021/12/19 06:32:06;;;;;;;;;;;7.60;91.30;;;;;;5067516;28;19913;-46
2021/12/19 06:34:33;;;;;;;;;;;7.60;91.30;;;;;;5054787;28;19952;-48
2021/12/19 06:36:59;;;;;;;;;;;7.60;91.40;;;;;;5067353;28;19905;-49
2021/12/19 06:39:25;;;;;;;;;;;7.60;91.40;;;;;;5070361;28;19936;-45
2021/12/19 06:41:57;;;;;;;;;;;7.60;91.50;;;;;;5069688;28;19947;-47
2021/12/19 06:44:24;;;;;;;;;;;7.60;91.50;;;;;;5069977;28;19907;-50
2021/12/19 06:46:51;;;;;;;;;;;7.60;91.40;;;;;;5070624;28;19916;-45
2021/12/19 06:49:17;;;;;;;;;;;7.70;91.30;;;;;;5066853;28;19920;-47
2021/12/19 06:51:44;;;;;;;;;;;7.70;91.20;;;;;;5065025;28;19914;-49
2021/12/19 06:54:10;;;;;;;;;;;7.70;91.00;;;;;;5058833;28;19913;-47
2021/12/19 06:56:37;;;;;;;;;;;7.70;90.90;;;;;;5065032;28;20345;-49
2021/12/19 06:59:04;;;;;;;;;;;7.70;90.70;;;;;;5050459;28;20334;-47
2021/12/19 07:01:31;;;;;;;;;;;7.70;90.60;;;;;;5051124;28;19908;-47
2021/12/19 07:03:57;;;;;;;;;;;7.70;90.40;;;;;;5055642;28;19999;-49
2021/12/19 07:06:24;;;;;;;;;;;7.80;90.20;;;;;;5051543;28;20423;-45
2021/12/19 07:08:52;;;;;;;;;;;7.80;90.00;;;;;;5058135;28;19932;-48
2021/12/19 07:11:19;;;;;;;;;;;7.80;89.90;;;;;;5050102;28;19962;-47
2021/12/19 07:13:46;;;;;;;;;;;7.90;90.00;;;;;;5059192;28;19923;-47
2021/12/19 07:16:13;;;;;;;;;;;7.80;90.00;;;;;;5049771;28;19905;-47
2021/12/19 07:18:42;;;;;;;;;;;7.80;89.90;;;;;;5057263;28;19920;-50
2021/12/19 07:21:10;;;;;;;;;;;7.80;89.70;;;;;;5049764;28;19927;-47
2021/12/19 07:23:37;;;;;;;;;;;7.90;89.40;;;;;;5061367;28;20314;-49
2021/12/19 07:26:05;;;;;;;;;;;7.80;89.20;;;;;;5060314;28;20348;-45
2021/12/19 07:28:32;;;;;;;;;;;7.90;89.10;;;;;;5083330;28;19916;-46
2021/12/19 07:30:59;;;;;;;;;;;7.90;89.10;;;;;;5093718;28;19920;-49
2021/12/19 07:33:25;;;;;;;;;;;7.90;89.50;;;;;;5086199;28;19943;-50
2021/12/19 07:35:53;;;;;;;;;;;7.90;90.00;;;;;;5070102;28;19922;-50
2021/12/19 07:38:34;;;;;;;;;;;7.90;90.30;;;;;;5092219;28;19965;-48
2021/12/19 07:41:02;;;;;;;;;;;7.80;90.40;;;;;;5092603;28;20260;-46
2021/12/19 07:43:29;;;;;;;;;;;7.80;90.30;;;;;;5087890;28;19998;-47
2021/12/19 07:45:56;;;;;;;;;;;7.80;90.10;;;;;;5084148;28;19923;-49
2021/12/19 07:48:22;;;;;;;;;;;7.80;90.10;;;;;;5080641;28;19938;-48
2021/12/19 07:50:49;;;;;;;;;;;7.70;90.10;;;;;;5093593;28;19904;-47
2021/12/19 07:53:19;;;;;;;;;;;7.70;90.00;;;;;;5089096;28;20006;-47
2021/12/19 07:55:45;;;;;;;;;;;7.70;89.90;;;;;;5075532;28;19919;-45
2021/12/19 07:58:12;;;;;;;;;;;7.70;89.80;;;;;;5087028;28;20242;-45
2021/12/19 08:00:39;;;;;;;;;;;7.70;89.70;;;;;;5074311;28;19913;-47
2021/12/19 08:03:06;;;;;;;;;;;7.70;89.20;;;;;;5073923;28;20285;-46
2021/12/19 08:05:33;;;;;;;;;;;7.70;88.70;;;;;;5080850;28;19919;-47
2021/12/19 08:08:03;;;;;;;;;;;7.70;88.10;;;;;;5091153;28;19970;-49
2021/12/19 08:13:00;;;;;;;;;;;7.80;86.80;;;;;;5089544;28;19908;-47
2021/12/19 08:15:30;;;;;;;;;;;7.90;86.60;;;;;;5092628;28;19915;-47
2021/12/19 08:17:56;;;;;;;;;;;7.90;86.60;;;;;;5092134;28;19920;-51
2021/12/19 08:20:24;;;;;;;;;;;7.90;86.70;;;;;;5072624;28;19908;-46
2021/12/19 08:22:51;;;;;;;;;;;7.90;86.80;;;;;;5088938;28;19950;-45
2021/12/19 08:25:18;;;;;;;;;;;7.90;86.80;;;;;;5076586;28;19920;-44
2021/12/19 08:27:45;;;;;;;;;;;7.90;86.90;;;;;;5092546;28;19976;-48
2021/12/19 08:30:12;;;;;;;;;;;8.00;87.10;;;;;;5091543;28;19951;-48
2021/12/19 08:32:39;;;;;;;;;;;8.00;87.40;;;;;;5090875;28;19908;-49
2021/12/19 08:35:09;;;;;;;;;;;8.00;87.60;;;;;;5069891;28;20363;-45
2021/12/19 08:37:35;;;;;;;;;;;8.00;87.80;;;;;;5087622;28;19943;-45
2021/12/19 08:40:03;;;;;;;;;;;8.00;87.80;;;;;;5085389;28;19912;-49
2021/12/19 08:42:32;;;;;;;;;;;8.00;87.90;;;;;;5089949;28;19908;-46
2021/12/19 08:44:59;;;;;;;;;;;8.00;87.90;;;;;;5091914;28;19912;-45
2021/12/19 08:47:27;;;;;;;;;;;8.00;87.80;;;;;;5090862;28;20011;-51
2021/12/19 08:49:53;;;;;;;;;;;8.00;87.80;;;;;;5091517;28;20005;-45
2021/12/19 08:52:19;;;;;;;;;;;8.10;87.60;;;;;;5091112;28;19912;-49
2021/12/19 08:54:46;;;;;;;;;;;8.10;87.70;;;;;;5055128;28;19939;-45
2021/12/19 08:57:13;;;;;;;;;;;8.10;87.60;;;;;;5092469;28;19923;-49
2021/12/19 08:59:42;;;;;;;;;;;8.10;87.60;;;;;;5073789;28;19954;-45
2021/12/19 09:02:09;;;;;;;;;;;8.20;87.60;;;;;;5088382;28;19930;-46
2021/12/19 09:04:36;;;;;;;;;;;8.20;87.70;;;;;;5081057;28;19969;-49
2021/12/19 09:07:02;;;;;;;;;;;8.20;87.70;;;;;;5089888;28;19987;-48
2021/12/19 09:09:29;;;;;;;;;;;8.20;87.50;;;;;;5088516;28;19912;-44
2021/12/19 09:11:56;;;;;;;;;;;8.30;87.20;;;;;;5072879;28;20152;-49
2021/12/19 09:14:23;;;;;;;;;;;8.30;87.20;;;;;;5090736;28;19904;-52
2021/12/19 09:16:49;;;;;;;;;;;8.20;87.20;;;;;;5088987;28;19977;-44
2021/12/19 09:19:16;;;;;;;;;;;8.30;87.00;;;;;;5048660;28;20244;-46
2021/12/19 09:21:43;;;;;;;;;;;8.30;86.60;;;;;;5087211;28;19948;-44
2021/12/19 09:24:08;;;;;;;;;;;8.40;86.60;;;;;;5077134;28;19908;-44
2021/12/19 09:26:36;;;;;;;;;;;8.40;86.50;;;;;;5088270;28;19915;-45
2021/12/19 09:29:02;;;;;;;;;;;8.30;86.60;;;;;;5073955;28;20314;-45
2021/12/19 09:31:29;;;;;;;;;;;8.40;86.50;;;;;;5087260;28;19916;-48
2021/12/19 09:33:56;;;;;;;;;;;8.40;86.40;;;;;;5080213;28;19987;-47
2021/12/19 09:36:23;;;;;;;;;;;8.40;85.90;;;;;;5074969;28;19912;-49
2021/12/19 09:38:50;;;;;;;;;;;8.40;85.90;;;;;;5072284;28;19908;-45
2021/12/19 09:41:27;;;;;;;;;;;8.40;85.50;;;;;;5089904;28;19920;-47
2021/12/19 09:43:53;;;;;;;;;;;8.40;85.40;;;;;;5090629;28;19912;-47
2021/12/19 09:46:21;;;;;;;;;;;8.50;85.50;;;;;;5087329;28;19931;-49
2021/12/19 09:48:48;;;;;;;;;;;8.50;85.60;;;;;;5085763;28;19919;-44
2021/12/19 09:51:16;;;;;;;;;;;8.40;85.50;;;;;;5087518;28;20321;-47
2021/12/19 09:53:43;;;;;;;;;;;8.50;85.60;;;;;;5054517;28;19959;-45
2021/12/19 09:56:10;;;;;;;;;;;8.40;85.60;;;;;;5070716;28;19954;-47
2021/12/19 09:58:39;;;;;;;;;;;8.40;85.60;;;;;;5063104;28;19919;-45
2021/12/19 10:01:10;;;;;;;;;;;8.50;85.80;;;;;;5085187;28;21317;-51
2021/12/19 10:03:37;;;;;;;;;;;8.50;85.90;;;;;;5070676;28;20249;-46
2021/12/19 10:06:20;;;;;;;;;;;8.50;86.00;;;;;;5086429;28;19912;-50
2021/12/19 10:08:48;;;;;;;;;;;8.50;86.00;;;;;;5084154;28;19931;-49
2021/12/19 10:11:46;;;;;;;;;;;8.50;85.90;;;;;;5075401;28;19908;-50
2021/12/19 10:14:32;;;;;;;;;;;8.50;86.10;;;;;;5079924;28;19920;-48
2021/12/19 10:17:00;;;;;;;;;;;8.50;85.90;;;;;;5080578;28;20225;-47
2021/12/19 10:19:53;;;;;;;;;;;8.50;85.80;;;;;;5078475;28;20392;-47
2021/12/19 10:22:39;;;;;;;;;;;8.60;85.50;;;;;;5060224;28;19953;-47
2021/12/19 10:25:35;;;;;;;;;;;8.60;85.50;;;;;;5087255;28;19926;-45
2021/12/19 10:28:19;;;;;;;;;;;8.60;86.00;;;;;;5056884;28;19969;-46
2021/12/19 10:30:49;;;;;;;;;;;8.70;86.30;;;;;;5082676;28;20419;-45
2021/12/19 10:33:33;;;;;;;;;;;8.60;86.30;;;;;;5085708;28;19911;-46
2021/12/19 10:36:02;;;;;;;;;;;8.70;85.70;;;;;;5063229;28;19918;-46
2021/12/19 10:38:46;;;;;;;;;;;8.70;85.50;;;;;;5072357;28;19915;-47
2021/12/19 10:41:14;;;;;;;;;;;8.60;85.40;;;;;;5081729;28;20253;-48
2021/12/19 10:44:10;;;;;;;;;;;8.60;85.40;;;;;;5073049;28;19935;-48
2021/12/19 10:46:39;;;;;;;;;;;8.60;85.70;;;;;;5076824;28;19908;-45
2021/12/19 10:49:21;;;;;;;;;;;8.60;86.30;;;;;;5065145;28;19909;-47
2021/12/19 10:51:49;;;;;;;;;;;8.60;86.50;;;;;;5085781;28;19911;-46
2021/12/19 10:54:16;;;;;;;;;;;8.60;86.70;;;;;;5076375;28;19994;-46
2021/12/19 10:56:43;;;;;;;;;;;8.60;86.90;;;;;;5080289;28;19969;-45
2021/12/19 10:59:10;;;;;;;;;;;8.60;86.70;;;;;;5083138;28;19916;-46
2021/12/19 11:01:56;;;;;;;;;;;8.60;86.80;;;;;;5069566;28;19915;-47
2021/12/19 11:04:23;;;;;;;;;;;8.70;86.80;;;;;;5072542;28;19965;-48
2021/12/19 11:06:53;;;;;;;;;;;8.60;87.00;;;;;;5085424;28;20383;-48
2021/12/19 11:09:19;;;;;;;;;;;8.60;87.00;;;;;;5074346;28;19908;-46
2021/12/19 11:11:57;;;;;;;;;;;8.60;87.30;;;;;;5077610;28;19912;-48
2021/12/19 11:14:33;;;;;;;;;;;8.70;87.50;;;;;;5088293;28;19908;-49
2021/12/19 11:16:59;;;;;;;;;;;8.70;87.40;;;;;;5062904;28;19920;-45
2021/12/19 11:19:28;;;;;;;;;;;8.70;87.40;;;;;;5077233;28;19916;-47
2021/12/19 11:21:54;;;;;;;;;;;8.80;87.40;;;;;;5065868;28;19946;-44
2021/12/19 11:24:21;;;;;;;;;;;8.80;87.50;;;;;;5069178;28;20341;-46
2021/12/19 11:26:49;;;;;;;;;;;8.80;87.40;;;;;;5069663;28;19908;-47
2021/12/19 11:29:16;;;;;;;;;;;8.70;87.50;;;;;;5078909;28;19913;-46
2021/12/19 11:31:46;;;;;;;;;;;8.80;87.70;;;;;;5083845;28;19916;-45
2021/12/19 11:34:30;;;;;;;;;;;8.80;87.70;;;;;;5072301;28;20315;-45
2021/12/19 11:36:56;;;;;;;;;;;8.80;87.70;;;;;;5057591;28;19920;-48
2021/12/19 11:39:30;;;;;;;;;;;8.70;87.60;;;;;;5051820;28;19965;-46
2021/12/19 11:42:03;;;;;;;;;;;8.70;87.40;;;;;;5077337;28;19916;-48
2021/12/19 11:44:30;;;;;;;;;;;8.80;87.40;;;;;;5056048;28;20257;-48
2021/12/19 11:46:59;;;;;;;;;;;8.80;87.40;;;;;;5060757;28;19916;-47
2021/12/19 11:49:27;;;;;;;;;;;8.70;87.40;;;;;;5070026;28;20315;-46
2021/12/19 11:52:12;;;;;;;;;;;8.70;87.50;;;;;;5073134;28;19927;-45
2021/12/19 11:54:39;;;;;;;;;;;8.70;87.60;;;;;;5083090;28;19965;-46
2021/12/19 11:57:10;;;;;;;;;;;8.70;87.50;;;;;;5069314;28;19920;-45
2021/12/19 11:59:39;;;;;;;;;;;8.70;87.60;;;;;;5068666;28;20314;-46
2021/12/19 12:02:22;;;;;;;;;;;8.70;87.70;;;;;;5088660;28;19951;-47
2021/12/19 12:05:07;;;;;;;;;;;8.70;87.70;;;;;;5069650;28;20268;-47
2021/12/19 12:07:59;;;;;;;;;;;8.70;87.80;;;;;;5075550;28;19912;-48
2021/12/19 12:10:26;;;;;;;;;;;8.70;87.70;;;;;;5034017;28;20276;-46
2021/12/19 12:12:52;;;;;;;;;;;8.70;87.30;;;;;;5078979;28;20430;-47
2021/12/19 12:15:32;;;;;;;;;;;8.70;87.30;;;;;;5092847;28;19939;-45
2021/12/19 12:18:02;;;;;;;;;;;8.70;87.10;;;;;;5089657;28;19987;-46
2021/12/19 12:20:36;;;;;;;;;;;8.80;86.80;;;;;;5089635;28;19916;-49
2021/12/19 12:23:08;;;;;;;;;;;8.80;86.90;;;;;;5071506;28;19943;-46
2021/12/19 12:25:42;;;;;;;;;;;8.90;86.90;;;;;;5089436;28;20352;-46
2021/12/19 12:28:10;;;;;;;;;;;8.90;87.00;;;;;;5089980;28;20007;-47
2021/12/19 12:30:41;;;;;;;;;;;8.90;87.00;;;;;;5089554;28;19973;-47
2021/12/19 12:33:14;;;;;;;;;;;8.90;86.80;;;;;;5091061;28;20002;-47
2021/12/19 12:35:42;;;;;;;;;;;9.00;86.90;;;;;;5089241;28;20245;-46
2021/12/19 12:38:09;;;;;;;;;;;9.00;86.50;;;;;;5087444;28;20010;-47
2021/12/19 12:42:11;;;;;;;15.35;3.40;;;9.00;86.40;;;;;;5129531;27;20298;-47
2021/12/19 12:44:37;;;;;;;16.77;2.85;;;9.10;86.10;;;;;;5128392;28;20084;-44
2021/12/19 12:47:05;;;;;;;13.20;2.25;;;9.00;86.40;;;;;;5130419;28;20023;-44
2021/12/19 12:49:34;;;;;;;16.27;3.00;;;9.00;86.80;;;;;;5129398;28;20421;-47
2021/12/19 12:52:07;;;;;;;16.00;3.58;;;8.90;87.00;;;;;;5112066;28;20028;-47
2021/12/19 12:54:41;;;;;;;16.98;2.63;;;8.90;87.00;;;;;;5111064;28;20102;-49
2021/12/19 12:57:15;;;;;;;16.88;3.20;;;8.90;86.90;;;;;;5111560;28;20127;-46
2021/12/19 12:59:45;;;;;;;11.88;2.47;;;8.90;86.40;;;;;;5129313;28;20356;-47
2021/12/19 13:02:19;;;;;;;13.90;2.33;;;8.90;86.00;;;;;;5129637;28;20066;-50
2021/12/19 13:04:48;;;;;;;13.88;3.22;;;8.90;85.90;;;;;;5129499;28;20042;-48
2021/12/19 13:07:24;;;;;;;17.52;3.10;;;8.90;86.10;;;;;;5130743;28;20031;-46
2021/12/19 13:10:00;;;;;;;17.15;3.67;;;8.90;85.80;;;;;;5111840;28;20031;-45
2021/12/19 13:12:29;;;;;;;18.20;2.63;;;8.90;85.80;;;;;;5130175;28;20024;-47
2021/12/19 13:15:05;;;;;;;19.98;3.97;;;8.90;86.10;;;;;;5116925;28;20119;-44
2021/12/19 13:17:48;;;;;;;16.25;2.95;;;8.90;86.20;;;;;;5108945;27;20504;-47
2021/12/19 13:20:21;;;;;;;18.42;5.20;;;8.90;86.10;;;;;;5112710;28;20035;-46
2021/12/19 13:22:58;;;;;;;17.55;3.13;;;8.90;85.90;;;;;;5111850;28;20031;-46
2021/12/19 13:25:39;;;;;;;12.93;2.67;;;8.90;86.10;;;;;;5130201;28;20019;-47
2021/12/19 13:28:10;;;;;;;17.05;6.32;;;8.90;86.10;;;;;;5130591;28;20019;-46
2021/12/19 13:30:43;;;;;;;12.75;3.42;;;8.90;86.30;;;;;;5112391;28;20038;-47
2021/12/19 13:33:18;;;;;;;23.17;4.15;;;8.90;86.20;;;;;;5130235;28;20031;-44
2021/12/19 13:35:50;;;;;;;12.38;3.30;;;8.80;86.10;;;;;;5129775;28;20039;-44
2021/12/19 13:38:37;;;;;;;14.40;3.33;;;8.80;85.90;;;;;;5130472;28;20448;-50
2021/12/19 13:41:10;;;;;;;21.90;3.65;;;8.80;85.60;;;;;;5108227;28;20063;-44
2021/12/19 13:43:38;;;;;;;36.08;4.05;;;8.80;85.40;;;;;;5108398;28;20063;-45
2021/12/19 13:46:10;;;;;;;17.30;2.60;;;8.70;85.30;;;;;;5109443;28;20031;-47
2021/12/19 13:48:57;;;;;;;14.68;3.08;;;8.80;85.50;;;;;;5109645;28;20031;-45
2021/12/19 13:51:30;;;;;;;16.23;3.65;;;8.70;85.50;;;;;;5106331;28;20043;-44
2021/12/19 13:54:00;;;;;;;18.70;3.97;;;8.70;85.80;;;;;;5094943;28;20066;-48
2021/12/19 13:56:44;;;;;;;20.63;2.78;;;8.70;85.80;;;;;;5094742;28;20460;-46
2021/12/19 13:59:19;;;;;;;18.13;3.30;;;8.70;85.80;;;;;;5095703;28;20465;-47
2021/12/19 14:01:45;;;;;;;23.77;4.22;;;8.70;86.10;;;;;;5096005;28;20032;-48
2021/12/19 14:04:24;;;;;;;21.13;3.63;;;8.60;86.00;;;;;;5077508;28;20065;-45
2021/12/19 14:06:58;;;;;;;16.15;3.17;;;8.70;86.10;;;;;;5095536;28;20129;-48
2021/12/19 14:09:27;;;;;;;13.02;3.03;;;8.60;86.20;;;;;;5095610;28;20119;-48
2021/12/19 14:12:04;;;;;;;12.82;2.53;;;8.60;86.00;;;;;;5094385;28;20036;-46
2021/12/19 14:14:33;;;;;;;14.25;3.53;;;8.60;85.80;;;;;;5095592;28;20449;-45
2021/12/19 14:17:06;;;;;;;12.82;2.63;;;8.60;85.90;;;;;;5094972;28;20067;-47
2021/12/19 14:19:40;;;;;;;13.50;3.20;;;8.60;85.80;;;;;;5095215;28;20460;-44
2021/12/19 14:22:06;;;;;;;12.25;2.55;;;8.60;85.80;;;;;;5094350;28;20036;-44
2021/12/19 14:24:53;;;;;;;20.08;3.17;;;8.60;85.90;;;;;;5095081;28;20110;-46
2021/12/19 14:27:35;;;;;;;15.82;3.55;;;8.60;86.20;;;;;;5094994;28;20024;-47
2021/12/19 14:30:15;;;;;;;15.05;2.88;;;8.60;86.20;;;;;;5074219;28;20480;-46
2021/12/19 14:33:00;;;;;;;;;;;8.60;86.20;;;;;;5091087;28;20036;-49
2021/12/19 14:35:51;;;;;;;18.20;3.42;;;8.50;86.20;;;;;;5092719;28;19962;-45
2021/12/19 14:38:16;;;;;;;20.38;3.92;;;8.60;86.10;;;;;;5092875;28;20353;-44
2021/12/19 14:40:43;;;;;;;15.10;3.65;;;8.60;85.20;;;;;;5104081;28;20071;-45
2021/12/19 14:43:18;;;;;;;18.52;5.43;;;8.50;84.30;;;;;;5113882;28;20046;-48
2021/12/19 14:46:04;;;;;;;18.90;3.45;;;8.50;84.00;;;;;;5096004;28;20023;-45
2021/12/19 14:48:48;;;;;;;16.27;3.90;;;8.50;83.60;;;;;;5112327;28;20032;-46
2021/12/19 14:51:23;;;;;;;17.70;3.72;;;8.50;84.70;;;;;;5094312;28;20031;-47
2021/12/19 14:54:01;;;;;;;23.88;3.33;;;8.40;84.60;;;;;;5114762;28;20525;-45
2021/12/19 14:56:29;;;;;;;18.58;3.13;;;8.50;84.60;;;;;;5096994;28;20031;-46
2021/12/19 14:59:02;;;;;;;16.20;3.55;;;8.40;81.50;;;;;;5114205;28;20040;-50
2021/12/19 15:01:33;;;;;;;18.58;3.70;;;8.40;79.70;;;;;;5114178;28;20456;-45
2021/12/19 15:04:07;;;;;;;18.63;4.45;;;8.40;79.60;;;;;;5095038;28;20367;-49
2021/12/19 15:06:42;;;;;;;22.08;4.25;;;8.40;80.20;;;;;;5096130;28;20577;-48
2021/12/19 15:09:18;;;;;;;18.83;5.03;;;8.40;80.60;;;;;;5114694;28;20059;-44
2021/12/19 15:11:45;;;;;;;16.88;4.25;;;8.40;81.70;;;;;;5096933;28;20039;-51
2021/12/19 15:14:12;;;;;;;22.25;5.10;;;8.40;81.90;;;;;;5113918;28;20035;-45
2021/12/19 15:16:39;;;;;;;25.48;6.38;;;8.40;81.70;;;;;;5102356;27;20040;-50
2021/12/19 15:19:09;;;;;;;24.45;4.50;;;8.30;81.30;;;;;;5101657;27;20039;-45
2021/12/19 15:21:38;;;;;;;24.52;6.15;;;8.30;81.80;;;;;;5104761;28;20024;-47
2021/12/19 15:24:07;;;;;;;24.35;4.85;;;8.20;82.00;;;;;;5103096;28;20103;-47
2021/12/19 15:26:34;;;;;;;28.77;6.90;;;8.20;82.20;;;;;;5096280;28;20140;-45
2021/12/19 15:29:04;;;;;;;25.27;4.75;;;8.20;81.60;;;;;;5105285;28;20380;-45
2021/12/19 15:31:31;;;;;;;21.00;5.15;;;8.20;81.40;;;;;;5091107;28;20028;-44
2021/12/19 15:33:58;;;;;;;23.98;4.03;;;8.20;81.30;;;;;;5093235;28;20059;-49